sensor_id;sensor_type;location;lat;lon;timestamp;pressure;altitude;pressure_sealevel;temperature;humidity
71996;BME280;59862;47.732;7.346;2022-10-31T00:01:20;98480.65;;;14.51;76.55
71996;BME280;59862;47.732;7.346;2022-10-31T00:03:47;98479.94;;;14.53;76.50
71996;BME280;59862;47.732;7.346;2022-10-31T00:06:16;98485.92;;;14.59;76.22
71996;BME280;59862;47.732;7.346;2022-10-31T00:08:51;98482.17;;;14.60;76.17
71996;BME280;59862;47.732;7.346;2022-10-31T00:11:16;98480.52;;;14.59;76.07
71996;BME280;59862;47.732;7.346;2022-10-31T00:13:43;98484.87;;;14.60;76.08
71996;BME280;59862;47.732;7.346;2022-10-31T00:16:19;98485.33;;;14.53;76.15
71996;BME280;59862;47.732;7.346;2022-10-31T00:18:50;98483.69;;;14.52;76.18
71996;BME280;59862;47.732;7.346;2022-10-31T00:21:19;98485.54;;;14.52;76.33
71996;BME280;59862;47.732;7.346;2022-10-31T00:23:47;98485.54;;;14.52;76.28
71996;BME280;59862;47.732;7.346;2022-10-31T00:26:14;98486.66;;;14.47;76.31
71996;BME280;59862;47.732;7.346;2022-10-31T00:28:42;98484.98;;;14.46;76.26
71996;BME280;59862;47.732;7.346;2022-10-31T00:31:11;98480.34;;;14.50;76.23
71996;BME280;59862;47.732;7.346;2022-10-31T00:33:40;98482.00;;;14.51;76.13
71996;BME280;59862;47.732;7.346;2022-10-31T00:36:14;98479.70;;;14.48;76.09
71996;BME280;59862;47.732;7.346;2022-10-31T00:38:37;98478.58;;;14.53;76.07
71996;BME280;59862;47.732;7.346;2022-10-31T00:41:05;98481.70;;;14.50;75.99
71996;BME280;59862;47.732;7.346;2022-10-31T00:43:32;98485.23;;;14.51;75.92
71996;BME280;59862;47.732;7.346;2022-10-31T00:45:59;98486.84;;;14.45;75.87
71996;BME280;59862;47.732;7.346;2022-10-31T00:48:27;98483.76;;;14.48;75.76
71996;BME280;59862;47.732;7.346;2022-10-31T00:50:55;98478.28;;;14.52;75.65
71996;BME280;59862;47.732;7.346;2022-10-31T00:53:23;98490.94;;;14.52;75.63
71996;BME280;59862;47.732;7.346;2022-10-31T00:55:50;98482.71;;;14.49;75.70
71996;BME280;59862;47.732;7.346;2022-10-31T00:58:18;98483.97;;;14.47;75.61
71996;BME280;59862;47.732;7.346;2022-10-31T01:00:50;98480.03;;;14.38;75.78
71996;BME280;59862;47.732;7.346;2022-10-31T01:03:24;98474.91;;;14.22;76.35
71996;BME280;59862;47.732;7.346;2022-10-31T01:06:01;98477.01;;;14.16;76.67
71996;BME280;59862;47.732;7.346;2022-10-31T01:08:29;98469.50;;;14.22;76.54
71996;BME280;59862;47.732;7.346;2022-10-31T01:11:20;98475.08;;;14.21;76.53
71996;BME280;59862;47.732;7.346;2022-10-31T01:13:51;98471.36;;;14.22;76.65
71996;BME280;59862;47.732;7.346;2022-10-31T01:16:20;98470.09;;;14.18;76.79
71996;BME280;59862;47.732;7.346;2022-10-31T01:18:48;98471.25;;;14.09;77.11
71996;BME280;59862;47.732;7.346;2022-10-31T01:21:18;98472.59;;;14.09;77.12
71996;BME280;59862;47.732;7.346;2022-10-31T01:23:46;98469.63;;;14.04;77.16
71996;BME280;59862;47.732;7.346;2022-10-31T01:26:21;98477.09;;;14.02;77.03
71996;BME280;59862;47.732;7.346;2022-10-31T01:28:49;98473.38;;;13.92;77.25
71996;BME280;59862;47.732;7.346;2022-10-31T01:31:19;98471.56;;;13.89;77.55
71996;BME280;59862;47.732;7.346;2022-10-31T01:33:47;98470.42;;;13.77;77.80
71996;BME280;59862;47.732;7.346;2022-10-31T01:38:47;98468.02;;;13.67;78.29
71996;BME280;59862;47.732;7.346;2022-10-31T01:41:18;98457.88;;;13.58;78.37
71996;BME280;59862;47.732;7.346;2022-10-31T01:43:51;98459.66;;;13.51;78.63
71996;BME280;59862;47.732;7.346;2022-10-31T01:46:24;98458.91;;;13.47;78.74
71996;BME280;59862;47.732;7.346;2022-10-31T01:48:54;98465.08;;;13.26;79.55
71996;BME280;59862;47.732;7.346;2022-10-31T01:51:25;98461.73;;;13.24;79.66
71996;BME280;59862;47.732;7.346;2022-10-31T01:53:55;98457.41;;;13.19;79.57
71996;BME280;59862;47.732;7.346;2022-10-31T01:56:23;98457.11;;;13.18;79.76
71996;BME280;59862;47.732;7.346;2022-10-31T01:58:52;98450.23;;;13.01;80.26
71996;BME280;59862;47.732;7.346;2022-10-31T02:01:21;98454.41;;;13.04;80.32
71996;BME280;59862;47.732;7.346;2022-10-31T02:03:49;98452.22;;;13.03;80.39
71996;BME280;59862;47.732;7.346;2022-10-31T02:06:31;98447.81;;;13.06;80.32
71996;BME280;59862;47.732;7.346;2022-10-31T02:08:57;98442.06;;;13.09;80.35
71996;BME280;59862;47.732;7.346;2022-10-31T02:11:28;98444.11;;;13.07;80.37
71996;BME280;59862;47.732;7.346;2022-10-31T02:13:58;98442.71;;;13.11;80.29
71996;BME280;59862;47.732;7.346;2022-10-31T02:16:26;98438.86;;;13.10;80.35
71996;BME280;59862;47.732;7.346;2022-10-31T02:18:54;98440.66;;;13.13;80.32
71996;BME280;59862;47.732;7.346;2022-10-31T02:29:55;98433.95;;;13.34;79.84
71996;BME280;59862;47.732;7.346;2022-10-31T02:32:49;98435.37;;;13.30;79.69
71996;BME280;59862;47.732;7.346;2022-10-31T02:35:31;98428.91;;;13.35;79.58
71996;BME280;59862;47.732;7.346;2022-10-31T02:41:09;98425.17;;;13.36;79.57
71996;BME280;59862;47.732;7.346;2022-10-31T02:43:35;98421.13;;;13.36;79.56
71996;BME280;59862;47.732;7.346;2022-10-31T02:46:07;98424.92;;;13.31;79.76
71996;BME280;59862;47.732;7.346;2022-10-31T02:48:34;98425.77;;;13.32;79.74
71996;BME280;59862;47.732;7.346;2022-10-31T02:51:04;98423.64;;;13.27;80.05
71996;BME280;59862;47.732;7.346;2022-10-31T02:53:33;98428.75;;;13.22;80.06
71996;BME280;59862;47.732;7.346;2022-10-31T02:56:13;98427.70;;;13.23;80.06
71996;BME280;59862;47.732;7.346;2022-10-31T02:58:47;98425.30;;;13.28;80.06
71996;BME280;59862;47.732;7.346;2022-10-31T03:04:32;98420.23;;;13.29;79.81
71996;BME280;59862;47.732;7.346;2022-10-31T03:12:53;98429.18;;;13.40;79.55
71996;BME280;59862;47.732;7.346;2022-10-31T03:15:12;98421.09;;;13.40;79.64
71996;BME280;59862;47.732;7.346;2022-10-31T03:17:50;98423.58;;;13.31;79.69
71996;BME280;59862;47.732;7.346;2022-10-31T03:20:13;98422.59;;;13.28;79.80
71996;BME280;59862;47.732;7.346;2022-10-31T03:22:43;98422.09;;;13.29;79.78
71996;BME280;59862;47.732;7.346;2022-10-31T03:25:12;98417.34;;;13.31;79.66
71996;BME280;59862;47.732;7.346;2022-10-31T03:27:42;98412.39;;;13.34;79.54
71996;BME280;59862;47.732;7.346;2022-10-31T03:30:11;98420.17;;;13.33;79.49
71996;BME280;59862;47.732;7.346;2022-10-31T03:32:48;98413.36;;;13.27;79.62
71996;BME280;59862;47.732;7.346;2022-10-31T03:35:17;98416.26;;;13.25;79.76
71996;BME280;59862;47.732;7.346;2022-10-31T03:37:47;98409.47;;;13.15;79.95
71996;BME280;59862;47.732;7.346;2022-10-31T03:40:16;98410.97;;;13.03;80.16
71996;BME280;59862;47.732;7.346;2022-10-31T03:42:53;98408.33;;;12.99;80.49
71996;BME280;59862;47.732;7.346;2022-10-31T03:45:24;98409.68;;;12.99;80.52
71996;BME280;59862;47.732;7.346;2022-10-31T03:47:54;98413.86;;;13.01;80.38
71996;BME280;59862;47.732;7.346;2022-10-31T03:50:25;98411.17;;;13.01;80.31
71996;BME280;59862;47.732;7.346;2022-10-31T03:53:13;98408.47;;;12.86;80.64
71996;BME280;59862;47.732;7.346;2022-10-31T03:55:42;98409.37;;;12.83;80.93
71996;BME280;59862;47.732;7.346;2022-10-31T03:58:21;98404.04;;;12.79;81.08
71996;BME280;59862;47.732;7.346;2022-10-31T04:00:51;98404.73;;;12.77;81.11
71996;BME280;59862;47.732;7.346;2022-10-31T04:03:27;98402.05;;;12.77;81.12
71996;BME280;59862;47.732;7.346;2022-10-31T04:05:56;98408.49;;;12.72;81.12
71996;BME280;59862;47.732;7.346;2022-10-31T04:08:28;98405.41;;;12.64;81.45
71996;BME280;59862;47.732;7.346;2022-10-31T04:10:57;98400.88;;;12.61;81.60
71996;BME280;59862;47.732;7.346;2022-10-31T04:13:31;98403.43;;;12.58;81.65
71996;BME280;59862;47.732;7.346;2022-10-31T04:15:59;98406.91;;;12.63;81.55
71996;BME280;59862;47.732;7.346;2022-10-31T04:18:27;98402.67;;;12.54;81.77
71996;BME280;59862;47.732;7.346;2022-10-31T04:21:03;98408.41;;;12.51;81.87
71996;BME280;59862;47.732;7.346;2022-10-31T04:23:32;98406.88;;;12.52;81.89
71996;BME280;59862;47.732;7.346;2022-10-31T04:26:00;98405.72;;;12.51;81.90
71996;BME280;59862;47.732;7.346;2022-10-31T04:28:27;98413.10;;;12.53;81.88
71996;BME280;59862;47.732;7.346;2022-10-31T04:30:55;98411.95;;;12.51;81.81
71996;BME280;59862;47.732;7.346;2022-10-31T04:33:22;98416.44;;;12.55;81.70
71996;BME280;59862;47.732;7.346;2022-10-31T04:35:50;98414.39;;;12.57;81.59
71996;BME280;59862;47.732;7.346;2022-10-31T04:38:17;98410.27;;;12.50;81.65
71996;BME280;59862;47.732;7.346;2022-10-31T04:40:45;98413.15;;;12.49;81.70
71996;BME280;59862;47.732;7.346;2022-10-31T04:43:13;98408.27;;;12.48;81.67
71996;BME280;59862;47.732;7.346;2022-10-31T04:45:40;98412.11;;;12.50;81.50
71996;BME280;59862;47.732;7.346;2022-10-31T04:48:08;98409.81;;;12.47;81.54
71996;BME280;59862;47.732;7.346;2022-10-31T04:50:35;98408.37;;;12.40;81.85
71996;BME280;59862;47.732;7.346;2022-10-31T04:53:03;98407.02;;;12.40;81.99
71996;BME280;59862;47.732;7.346;2022-10-31T04:55:30;98403.83;;;12.41;82.09
71996;BME280;59862;47.732;7.346;2022-10-31T04:57:58;98405.48;;;12.42;82.22
71996;BME280;59862;47.732;7.346;2022-10-31T05:00:26;98398.61;;;12.39;82.29
71996;BME280;59862;47.732;7.346;2022-10-31T05:02:55;98402.59;;;12.43;82.25
71996;BME280;59862;47.732;7.346;2022-10-31T05:05:26;98400.44;;;12.43;82.19
71996;BME280;59862;47.732;7.346;2022-10-31T05:07:56;98396.56;;;12.41;82.45
71996;BME280;59862;47.732;7.346;2022-10-31T05:10:26;98394.66;;;12.46;82.40
71996;BME280;59862;47.732;7.346;2022-10-31T05:12:59;98394.31;;;12.49;82.39
71996;BME280;59862;47.732;7.346;2022-10-31T05:15:25;98397.45;;;12.52;82.19
71996;BME280;59862;47.732;7.346;2022-10-31T05:17:53;98395.66;;;12.49;82.14
71996;BME280;59862;47.732;7.346;2022-10-31T05:20:24;98399.35;;;12.48;82.25
71996;BME280;59862;47.732;7.346;2022-10-31T05:22:54;98398.90;;;12.44;82.22
71996;BME280;59862;47.732;7.346;2022-10-31T05:25:23;98397.70;;;12.47;82.11
71996;BME280;59862;47.732;7.346;2022-10-31T05:27:53;98393.97;;;12.48;81.91
71996;BME280;59862;47.732;7.346;2022-10-31T05:30:24;98396.11;;;12.38;81.87
71996;BME280;59862;47.732;7.346;2022-10-31T05:32:52;98398.61;;;12.39;81.94
71996;BME280;59862;47.732;7.346;2022-10-31T05:35:28;98396.45;;;12.39;81.85
71996;BME280;59862;47.732;7.346;2022-10-31T05:37:56;98396.45;;;12.39;81.78
71996;BME280;59862;47.732;7.346;2022-10-31T05:40:28;98391.42;;;12.36;81.66
71996;BME280;59862;47.732;7.346;2022-10-31T05:42:56;98389.62;;;12.32;81.62
71996;BME280;59862;47.732;7.346;2022-10-31T05:45:26;98390.63;;;12.31;81.68
71996;BME280;59862;47.732;7.346;2022-10-31T05:47:55;98388.64;;;12.29;81.72
71996;BME280;59862;47.732;7.346;2022-10-31T05:50:24;98380.92;;;12.26;81.85
71996;BME280;59862;47.732;7.346;2022-10-31T05:52:57;98378.09;;;12.24;81.97
71996;BME280;59862;47.732;7.346;2022-10-31T05:55:24;98384.50;;;12.23;82.08
71996;BME280;59862;47.732;7.346;2022-10-31T05:57:53;98380.78;;;12.24;82.07
71996;BME280;59862;47.732;7.346;2022-10-31T06:00:21;98378.63;;;12.23;82.06
71996;BME280;59862;47.732;7.346;2022-10-31T06:02:49;98379.44;;;12.24;82.03
71996;BME280;59862;47.732;7.346;2022-10-31T06:05:16;98370.02;;;12.24;81.98
71996;BME280;59862;47.732;7.346;2022-10-31T06:07:44;98373.41;;;12.22;81.95
71996;BME280;59862;47.732;7.346;2022-10-31T06:10:11;98373.84;;;12.14;82.07
71996;BME280;59862;47.732;7.346;2022-10-31T06:12:39;98369.51;;;12.09;82.31
71996;BME280;59862;47.732;7.346;2022-10-31T06:15:07;98372.00;;;12.11;82.43
71996;BME280;59862;47.732;7.346;2022-10-31T06:17:35;98374.89;;;12.09;82.47
71996;BME280;59862;47.732;7.346;2022-10-31T06:20:03;98373.73;;;12.08;82.57
71996;BME280;59862;47.732;7.346;2022-10-31T06:22:31;98373.80;;;12.00;82.83
71996;BME280;59862;47.732;7.346;2022-10-31T06:24:59;98374.74;;;12.07;82.80
71996;BME280;59862;47.732;7.346;2022-10-31T06:27:27;98376.93;;;12.07;82.75
71996;BME280;59862;47.732;7.346;2022-10-31T06:29:55;98381.61;;;12.09;82.77
71996;BME280;59862;47.732;7.346;2022-10-31T06:32:22;98375.13;;;12.04;82.88
71996;BME280;59862;47.732;7.346;2022-10-31T06:34:50;98381.61;;;12.09;82.86
71996;BME280;59862;47.732;7.346;2022-10-31T06:37:17;98383.95;;;12.12;82.77
71996;BME280;59862;47.732;7.346;2022-10-31T06:42:11;98379.17;;;12.18;82.45
71996;BME280;59862;47.732;7.346;2022-10-31T06:44:39;98382.80;;;12.26;82.41
71996;BME280;59862;47.732;7.346;2022-10-31T06:47:06;98375.09;;;12.23;82.18
71996;BME280;59862;47.732;7.346;2022-10-31T06:49:33;98389.44;;;12.34;82.13
71996;BME280;59862;47.732;7.346;2022-10-31T06:52:01;98394.06;;;12.40;82.04
71996;BME280;59862;47.732;7.346;2022-10-31T06:54:29;98399.20;;;12.45;82.00
71996;BME280;59862;47.732;7.346;2022-10-31T06:56:56;98388.98;;;12.45;82.02
71996;BME280;59862;47.732;7.346;2022-10-31T06:59:23;98395.05;;;12.57;81.84
71996;BME280;59862;47.732;7.346;2022-10-31T07:01:51;98395.09;;;12.68;81.60
71996;BME280;59862;47.732;7.346;2022-10-31T07:04:18;98398.06;;;12.73;81.45
71996;BME280;59862;47.732;7.346;2022-10-31T07:06:46;98397.61;;;12.80;81.42
71996;BME280;59862;47.732;7.346;2022-10-31T07:09:13;98398.42;;;12.95;81.14
71996;BME280;59862;47.732;7.346;2022-10-31T07:11:41;98395.92;;;13.08;80.78
71996;BME280;59862;47.732;7.346;2022-10-31T07:14:08;98392.09;;;13.17;80.27
71996;BME280;59862;47.732;7.346;2022-10-31T07:16:35;98395.34;;;13.27;79.77
71996;BME280;59862;47.732;7.346;2022-10-31T07:19:03;98399.26;;;13.35;79.17
71996;BME280;59862;47.732;7.346;2022-10-31T07:21:30;98405.16;;;13.45;79.10
71996;BME280;59862;47.732;7.346;2022-10-31T07:23:58;98397.48;;;13.53;78.94
71996;BME280;59862;47.732;7.346;2022-10-31T07:26:25;98400.74;;;13.59;78.65
71996;BME280;59862;47.732;7.346;2022-10-31T07:28:54;98391.44;;;13.61;78.42
71996;BME280;59862;47.732;7.346;2022-10-31T07:31:21;98403.23;;;13.60;78.12
71996;BME280;59862;47.732;7.346;2022-10-31T07:33:50;98403.30;;;13.56;78.07
71996;BME280;59862;47.732;7.346;2022-10-31T07:36:17;98415.64;;;13.65;78.10
71996;BME280;59862;47.732;7.346;2022-10-31T07:38:45;98421.41;;;13.62;76.79
71996;BME280;59862;47.732;7.346;2022-10-31T07:41:12;98422.95;;;13.61;76.32
71996;BME280;59862;47.732;7.346;2022-10-31T07:43:40;98421.88;;;13.55;75.41
71996;BME280;59862;47.732;7.346;2022-10-31T07:46:07;98420.97;;;13.59;75.40
71996;BME280;59862;47.732;7.346;2022-10-31T07:48:34;98424.30;;;13.72;75.46
71996;BME280;59862;47.732;7.346;2022-10-31T07:51:02;98423.52;;;13.78;75.21
71996;BME280;59862;47.732;7.346;2022-10-31T07:53:29;98418.53;;;13.75;73.65
71996;BME280;59862;47.732;7.346;2022-10-31T07:55:57;98426.05;;;13.79;73.72
71996;BME280;59862;47.732;7.346;2022-10-31T07:58:24;98424.28;;;13.93;73.58
71996;BME280;59862;47.732;7.346;2022-10-31T08:00:52;98418.44;;;14.00;73.19
71996;BME280;59862;47.732;7.346;2022-10-31T08:03:19;98424.55;;;13.98;72.19
71996;BME280;59862;47.732;7.346;2022-10-31T08:05:47;98425.45;;;14.05;72.24
71996;BME280;59862;47.732;7.346;2022-10-31T08:08:15;98420.27;;;14.10;71.52
71996;BME280;59862;47.732;7.346;2022-10-31T08:10:43;98422.89;;;13.97;71.64
71996;BME280;59862;47.732;7.346;2022-10-31T08:13:12;98419.72;;;14.04;71.75
71996;BME280;59862;47.732;7.346;2022-10-31T08:15:41;98420.61;;;14.11;71.76
71996;BME280;59862;47.732;7.346;2022-10-31T08:18:13;98412.23;;;14.27;71.54
71996;BME280;59862;47.732;7.346;2022-10-31T08:20:42;98411.48;;;14.33;71.07
71996;BME280;59862;47.732;7.346;2022-10-31T08:23:11;98414.52;;;14.40;71.98
71996;BME280;59862;47.732;7.346;2022-10-31T08:25:39;98410.85;;;14.48;71.79
71996;BME280;59862;47.732;7.346;2022-10-31T08:28:10;98406.30;;;14.38;71.80
71996;BME280;59862;47.732;7.346;2022-10-31T08:30:38;98400.34;;;14.32;71.31
71996;BME280;59862;47.732;7.346;2022-10-31T08:33:15;98393.47;;;14.19;72.00
71996;BME280;59862;47.732;7.346;2022-10-31T08:35:43;98390.39;;;14.22;71.84
71996;BME280;59862;47.732;7.346;2022-10-31T08:38:12;98397.03;;;14.09;71.77
71996;BME280;59862;47.732;7.346;2022-10-31T08:40:41;98396.50;;;14.20;72.39
71996;BME280;59862;47.732;7.346;2022-10-31T08:43:14;98398.87;;;14.40;72.09
71996;BME280;59862;47.732;7.346;2022-10-31T08:45:43;98401.78;;;14.62;71.44
71996;BME280;59862;47.732;7.346;2022-10-31T08:48:13;98407.69;;;14.96;70.84
71996;BME280;59862;47.732;7.346;2022-10-31T08:50:42;98402.71;;;15.30;70.27
71996;BME280;59862;47.732;7.346;2022-10-31T08:53:12;98404.14;;;15.19;71.52
71996;BME280;59862;47.732;7.346;2022-10-31T08:55:41;98401.25;;;15.27;71.60
71996;BME280;59862;47.732;7.346;2022-10-31T08:58:18;98400.14;;;15.39;71.61
71996;BME280;59862;47.732;7.346;2022-10-31T09:00:43;98397.81;;;15.59;71.34
71996;BME280;59862;47.732;7.346;2022-10-31T09:03:18;98399.41;;;15.71;70.11
71996;BME280;59862;47.732;7.346;2022-10-31T09:05:42;98396.09;;;15.75;70.31
71996;BME280;59862;47.732;7.346;2022-10-31T09:08:09;98399.20;;;15.79;69.41
71996;BME280;59862;47.732;7.346;2022-10-31T09:10:37;98404.52;;;15.70;69.00
71996;BME280;59862;47.732;7.346;2022-10-31T09:13:13;98403.70;;;15.89;69.11
71996;BME280;59862;47.732;7.346;2022-10-31T09:15:43;98404.12;;;15.99;68.20
71996;BME280;59862;47.732;7.346;2022-10-31T09:18:13;98392.43;;;16.38;67.79
71996;BME280;59862;47.732;7.346;2022-10-31T09:20:42;98393.06;;;16.53;66.85
71996;BME280;59862;47.732;7.346;2022-10-31T09:23:21;98395.30;;;16.82;66.39
71996;BME280;59862;47.732;7.346;2022-10-31T09:25:50;98385.67;;;16.93;65.19
71996;BME280;59862;47.732;7.346;2022-10-31T09:28:20;98386.88;;;17.03;64.76
71996;BME280;59862;47.732;7.346;2022-10-31T09:30:50;98385.98;;;17.16;65.38
71996;BME280;59862;47.732;7.346;2022-10-31T09:33:18;98385.87;;;17.13;64.38
71996;BME280;59862;47.732;7.346;2022-10-31T09:35:46;98375.12;;;16.94;65.35
71996;BME280;59862;47.732;7.346;2022-10-31T09:38:19;98374.32;;;16.51;65.78
71996;BME280;59862;47.732;7.346;2022-10-31T09:41:06;98370.16;;;16.84;65.69
71996;BME280;59862;47.732;7.346;2022-10-31T09:43:41;98369.50;;;16.95;65.96
71996;BME280;59862;47.732;7.346;2022-10-31T09:49:05;98370.38;;;17.05;65.58
71996;BME280;59862;47.732;7.346;2022-10-31T09:51:39;98370.63;;;16.97;65.64
71996;BME280;59862;47.732;7.346;2022-10-31T09:54:14;98370.84;;;16.66;65.85
71996;BME280;59862;47.732;7.346;2022-10-31T09:56:43;98375.47;;;16.20;66.79
71996;BME280;59862;47.732;7.346;2022-10-31T09:59:18;98372.77;;;15.87;67.30
71996;BME280;59862;47.732;7.346;2022-10-31T10:02:05;98372.58;;;16.02;67.79
71996;BME280;59862;47.732;7.346;2022-10-31T10:08:16;98374.67;;;15.37;69.32
71996;BME280;59862;47.732;7.346;2022-10-31T10:09:51;98369.36;;;15.09;70.21
71996;BME280;59862;47.732;7.346;2022-10-31T10:17:55;98373.94;;;15.82;69.56
71996;BME280;59862;47.732;7.346;2022-10-31T10:25:43;98375.32;;;16.63;67.12
71996;BME280;59862;47.732;7.346;2022-10-31T10:30:48;98347.23;;;16.87;65.29
71996;BME280;59862;47.732;7.346;2022-10-31T10:33:36;98341.11;;;16.76;66.02
71996;BME280;59862;47.732;7.346;2022-10-31T10:36:16;98337.61;;;16.49;66.79
71996;BME280;59862;47.732;7.346;2022-10-31T10:38:59;98338.45;;;16.62;65.97
71996;BME280;59862;47.732;7.346;2022-10-31T10:41:27;98344.50;;;17.09;65.12
71996;BME280;59862;47.732;7.346;2022-10-31T10:43:54;98331.34;;;18.06;62.50
71996;BME280;59862;47.732;7.346;2022-10-31T10:54:53;98331.30;;;19.21;58.50
71996;BME280;59862;47.732;7.346;2022-10-31T11:00:17;98323.10;;;19.48;57.86
71996;BME280;59862;47.732;7.346;2022-10-31T11:02:45;98323.92;;;19.70;56.93
71996;BME280;59862;47.732;7.346;2022-10-31T11:07:49;98308.64;;;20.70;54.95
71996;BME280;59862;47.732;7.346;2022-10-31T11:10:17;98309.47;;;22.33;51.26
71996;BME280;59862;47.732;7.346;2022-10-31T11:13:01;98305.34;;;23.10;48.77
71996;BME280;59862;47.732;7.346;2022-10-31T11:15:28;98308.13;;;23.34;47.83
71996;BME280;59862;47.732;7.346;2022-10-31T11:17:58;98308.12;;;23.12;48.45
71996;BME280;59862;47.732;7.346;2022-10-31T11:20:29;98308.41;;;22.34;48.95
71996;BME280;59862;47.732;7.346;2022-10-31T11:23:27;98303.25;;;22.19;49.81
71996;BME280;59862;47.732;7.346;2022-10-31T11:25:34;98295.52;;;22.13;50.17
71996;BME280;59862;47.732;7.346;2022-10-31T11:28:11;98291.92;;;21.94;50.58
71996;BME280;59862;47.732;7.346;2022-10-31T11:30:50;98288.23;;;21.55;51.71
71996;BME280;59862;47.732;7.346;2022-10-31T11:35:55;98281.20;;;21.59;51.64
71996;BME280;59862;47.732;7.346;2022-10-31T11:38:29;98276.91;;;21.49;51.77
71996;BME280;59862;47.732;7.346;2022-10-31T11:40:59;98266.06;;;21.23;51.60
71996;BME280;59862;47.732;7.346;2022-10-31T11:43:27;98267.77;;;21.57;52.12
71996;BME280;59862;47.732;7.346;2022-10-31T11:45:55;98269.02;;;21.50;51.81
71996;BME280;59862;47.732;7.346;2022-10-31T11:48:25;98266.28;;;20.93;52.54
71996;BME280;59862;47.732;7.346;2022-10-31T11:50:55;98258.54;;;20.62;53.69
71996;BME280;59862;47.732;7.346;2022-10-31T11:53:29;98245.06;;;21.85;52.05
71996;BME280;59862;47.732;7.346;2022-10-31T11:56:20;98235.72;;;23.54;47.89
71996;BME280;59862;47.732;7.346;2022-10-31T11:58:34;98222.83;;;23.84;46.61
71996;BME280;59862;47.732;7.346;2022-10-31T12:01:01;98220.97;;;23.58;47.19
71996;BME280;59862;47.732;7.346;2022-10-31T12:03:42;98219.61;;;23.94;46.30
71996;BME280;59862;47.732;7.346;2022-10-31T12:06:28;98210.72;;;23.77;46.83
71996;BME280;59862;47.732;7.346;2022-10-31T12:08:50;98213.27;;;23.86;46.40
71996;BME280;59862;47.732;7.346;2022-10-31T12:11:27;98227.08;;;24.01;46.67
71996;BME280;59862;47.732;7.346;2022-10-31T12:14:05;98218.08;;;24.08;46.22
71996;BME280;59862;47.732;7.346;2022-10-31T12:16:47;98212.33;;;23.76;46.66
71996;BME280;59862;47.732;7.346;2022-10-31T12:33:50;98176.27;;;22.72;49.60
71996;BME280;59862;47.732;7.346;2022-10-31T12:41:44;98167.13;;;23.73;46.22
71996;BME280;59862;47.732;7.346;2022-10-31T12:57:52;98138.49;;;33.30;28.42
71996;BME280;59862;47.732;7.346;2022-10-31T13:00:18;98142.71;;;35.10;26.77
71996;BME280;59862;47.732;7.346;2022-10-31T13:02:57;98135.05;;;35.80;25.65
71996;BME280;59862;47.732;7.346;2022-10-31T13:05:37;98127.55;;;36.50;24.43
71996;BME280;59862;47.732;7.346;2022-10-31T13:08:08;98124.91;;;37.42;23.37
71996;BME280;59862;47.732;7.346;2022-10-31T13:14:10;98115.19;;;36.69;23.23
71996;BME280;59862;47.732;7.346;2022-10-31T13:16:19;98107.02;;;35.30;25.25
71996;BME280;59862;47.732;7.346;2022-10-31T13:18:51;98093.26;;;36.41;24.21
71996;BME280;59862;47.732;7.346;2022-10-31T13:21:25;98076.25;;;36.16;24.52
71996;BME280;59862;47.732;7.346;2022-10-31T13:23:52;98063.64;;;35.98;24.50
71996;BME280;59862;47.732;7.346;2022-10-31T13:26:42;98077.45;;;36.57;24.06
71996;BME280;59862;47.732;7.346;2022-10-31T13:31:56;98070.23;;;34.51;26.57
71996;BME280;59862;47.732;7.346;2022-10-31T13:34:33;98067.64;;;36.27;24.17
71996;BME280;59862;47.732;7.346;2022-10-31T13:45:54;98054.60;;;38.33;21.85
71996;BME280;59862;47.732;7.346;2022-10-31T13:48:39;98043.44;;;38.21;22.20
71996;BME280;59862;47.732;7.346;2022-10-31T13:51:10;98041.86;;;37.83;22.06
71996;BME280;59862;47.732;7.346;2022-10-31T13:54:01;98050.29;;;38.71;21.21
71996;BME280;59862;47.732;7.346;2022-10-31T13:56:32;98059.16;;;39.55;20.27
71996;BME280;59862;47.732;7.346;2022-10-31T13:59:15;98065.66;;;38.36;20.65
71996;BME280;59862;47.732;7.346;2022-10-31T14:01:53;98056.17;;;37.04;22.44
71996;BME280;59862;47.732;7.346;2022-10-31T14:04:26;98048.81;;;35.46;24.66
71996;BME280;59862;47.732;7.346;2022-10-31T14:07:05;98045.38;;;33.19;27.00
71996;BME280;59862;47.732;7.346;2022-10-31T14:12:40;98031.08;;;28.90;34.29
71996;BME280;59862;47.732;7.346;2022-10-31T14:15:19;98026.66;;;27.62;36.36
71996;BME280;59862;47.732;7.346;2022-10-31T14:17:54;98031.37;;;26.55;39.00
71996;BME280;59862;47.732;7.346;2022-10-31T14:20:34;98030.52;;;26.03;40.94
71996;BME280;59862;47.732;7.346;2022-10-31T14:23:39;98020.54;;;26.25;40.97
71996;BME280;59862;47.732;7.346;2022-10-31T14:26:20;98017.57;;;27.33;38.81
71996;BME280;59862;47.732;7.346;2022-10-31T14:28:50;98012.28;;;27.41;37.95
71996;BME280;59862;47.732;7.346;2022-10-31T14:31:36;98007.69;;;27.27;38.09
71996;BME280;59862;47.732;7.346;2022-10-31T14:45:06;97999.24;;;23.44;46.69
71996;BME280;59862;47.732;7.346;2022-10-31T14:47:45;97998.45;;;22.75;48.16
71996;BME280;59862;47.732;7.346;2022-10-31T14:52:45;97997.09;;;21.54;51.60
71996;BME280;59862;47.732;7.346;2022-10-31T14:55:14;97998.48;;;21.16;51.50
71996;BME280;59862;47.732;7.346;2022-10-31T14:57:52;97999.92;;;20.87;52.96
71996;BME280;59862;47.732;7.346;2022-10-31T15:00:21;97992.38;;;20.45;54.82
71996;BME280;59862;47.732;7.346;2022-10-31T15:03:10;97994.09;;;20.34;55.06
71996;BME280;59862;47.732;7.346;2022-10-31T15:05:40;97990.31;;;20.21;55.28
71996;BME280;59862;47.732;7.346;2022-10-31T15:08:12;97992.20;;;20.06;55.38
71996;BME280;59862;47.732;7.346;2022-10-31T15:10:36;97988.36;;;19.77;56.38
71996;BME280;59862;47.732;7.346;2022-10-31T15:13:13;97995.83;;;19.70;57.32
71996;BME280;59862;47.732;7.346;2022-10-31T15:15:40;98000.50;;;19.46;57.67
71996;BME280;59862;47.732;7.346;2022-10-31T15:18:13;98003.58;;;19.26;57.20
71996;BME280;59862;47.732;7.346;2022-10-31T15:20:42;98003.55;;;19.12;57.25
71996;BME280;59862;47.732;7.346;2022-10-31T15:23:17;98004.34;;;19.13;57.62
71996;BME280;59862;47.732;7.346;2022-10-31T15:25:45;98010.03;;;19.11;58.17